Time;durP1;ratioP1;P1;durP2;ratioP2;P2;SDS_P1;SDS_P2;PMS_P1;PMS_P2;Temp;Humidity;BMP_temperature;BMP_pressure;BME280_temperature;BME280_humidity;BME280_pressure;Samples;Min_cycle;Max_cycle;Signal;HPM_P1;HPM_P2
2021/08/06 00:00:04;;;;;;;10.75;2.60;;;20.90;99.90;;;;;;4262469;27;20054;-75
2021/08/06 00:02:07;;;;;;;8.40;2.40;;;21.00;99.90;;;;;;4262577;27;20061;-75
2021/08/06 00:04:10;;;;;;;10.10;2.60;;;21.10;99.90;;;;;;4262418;27;20470;-75
2021/08/06 00:06:15;;;;;;;11.02;2.60;;;21.10;99.90;;;;;;4262727;27;20058;-75
2021/08/06 00:08:18;;;;;;;10.23;2.45;;;21.00;99.90;;;;;;4262937;27;20055;-75
2021/08/06 00:10:21;;;;;;;12.68;2.90;;;21.10;99.90;;;;;;4262531;27;20055;-75
2021/08/06 00:12:24;;;;;;;8.95;2.72;;;21.10;99.90;;;;;;4262375;27;20055;-75
2021/08/06 00:14:27;;;;;;;9.75;2.22;;;21.10;99.90;;;;;;4262096;27;20538;-75
2021/08/06 00:16:30;;;;;;;13.35;2.45;;;21.00;99.90;;;;;;4262511;27;20617;-75
2021/08/06 00:18:33;;;;;;;14.65;2.88;;;20.80;99.90;;;;;;4262495;27;20498;-76
2021/08/06 00:20:36;;;;;;;12.07;1.88;;;20.80;99.90;;;;;;4262324;27;20065;-76
2021/08/06 00:22:41;;;;;;;10.43;2.90;;;20.90;99.90;;;;;;4262262;27;20061;-73
2021/08/06 00:24:44;;;;;;;9.57;2.72;;;20.90;99.90;;;;;;4263287;27;20053;-73
2021/08/06 00:26:47;;;;;;;9.20;2.40;;;20.80;99.90;;;;;;4265617;27;20067;-75
2021/08/06 00:28:50;;;;;;;8.93;2.40;;;20.60;99.90;;;;;;4247454;27;20550;-74
2021/08/06 00:30:53;;;;;;;10.38;2.60;;;20.70;99.90;;;;;;4265135;27;20067;-74
2021/08/06 00:32:56;;;;;;;19.92;2.92;;;20.70;99.90;;;;;;4265417;27;20619;-73
2021/08/06 00:34:59;;;;;;;12.77;2.88;;;20.60;99.90;;;;;;4265380;27;20050;-75
2021/08/06 00:37:03;;;;;;;10.65;2.20;;;20.70;99.90;;;;;;4265819;27;20054;-75
2021/08/06 00:39:07;;;;;;;11.73;2.80;;;20.60;99.90;;;;;;4265780;27;20055;-75
2021/08/06 00:41:11;;;;;;;8.88;2.10;;;20.60;99.90;;;;;;4265199;27;20054;-74
2021/08/06 00:43:14;;;;;;;9.00;2.22;;;20.90;99.80;;;;;;4265497;27;20496;-74
2021/08/06 00:45:18;;;;;;;8.70;2.78;;;20.90;99.60;;;;;;4265376;27;20054;-76
2021/08/06 00:47:21;;;;;;;11.68;2.75;;;20.80;99.70;;;;;;4252833;27;20384;-75
2021/08/06 00:49:24;;;;;;;11.85;2.10;;;20.70;99.90;;;;;;4248121;27;20455;-75
2021/08/06 00:51:28;;;;;;;10.20;2.70;;;20.70;99.70;;;;;;4248280;27;20403;-75
2021/08/06 00:53:31;;;;;;;7.45;2.05;;;20.80;99.70;;;;;;4247857;27;20055;-76
2021/08/06 00:55:35;;;;;;;13.75;2.55;;;20.80;99.60;;;;;;4248108;27;20047;-75
2021/08/06 00:57:39;;;;;;;12.50;2.95;;;20.90;99.60;;;;;;4247713;27;20051;-73
2021/08/06 00:59:42;;;;;;;8.85;2.05;;;20.80;99.70;;;;;;4247967;27;20533;-74
2021/08/06 01:01:51;;;;;;;10.80;2.97;;;20.60;99.90;;;;;;4248052;27;20057;-73
2021/08/06 01:04:05;;;;;;;8.45;2.63;;;20.70;99.90;;;;;;4255193;27;20055;-75
2021/08/06 01:06:11;;;;;;;10.00;2.83;;;20.70;99.90;;;;;;4264779;27;20536;-74
2021/08/06 01:08:17;;;;;;;9.98;2.05;;;20.80;99.80;;;;;;4264810;27;20122;-73
2021/08/06 01:10:23;;;;;;;11.05;2.70;;;20.80;99.70;;;;;;4265121;27;20104;-76
2021/08/06 01:12:33;;;;;;;11.93;2.83;;;20.80;99.70;;;;;;4246285;27;20055;-74
2021/08/06 01:14:40;;;;;;;12.93;2.15;;;20.80;99.70;;;;;;4264986;27;20046;-74
2021/08/06 01:16:47;;;;;;;8.30;2.45;;;20.90;99.60;;;;;;4246407;27;20058;-74
2021/08/06 01:18:54;;;;;;;8.40;2.42;;;20.60;99.90;;;;;;4264667;27;20403;-74
2021/08/06 01:21:03;;;;;;;12.00;2.60;;;20.70;99.90;;;;;;4246469;27;20416;-73
2021/08/06 01:23:15;;;;;;;9.57;2.70;;;20.70;99.90;;;;;;4264784;27;20057;-73
2021/08/06 01:25:34;;;;;;;11.32;2.58;;;20.70;99.90;;;;;;4246427;27;20057;-74
2021/08/06 01:27:38;;;;;;;9.07;2.42;;;20.80;99.80;;;;;;4264652;27;20055;-74
2021/08/06 01:29:41;;;;;;;9.93;2.20;;;20.70;99.80;;;;;;4264472;27;20057;-74
2021/08/06 01:31:44;;;;;;;11.27;2.90;;;20.70;99.70;;;;;;4264616;27;20057;-73
2021/08/06 01:33:47;;;;;;;10.35;2.47;;;20.80;99.70;;;;;;4265140;27;20510;-73
2021/08/06 01:35:50;;;;;;;5.65;1.98;;;20.70;99.50;;;;;;4264028;27;20427;-74
2021/08/06 01:37:53;;;;;;;11.18;2.30;;;20.80;99.30;;;;;;4264697;27;20054;-73
2021/08/06 01:39:56;;;;;;;8.85;2.42;;;20.80;99.30;;;;;;4264463;27;20407;-74
2021/08/06 01:42:08;;;;;;;9.15;2.05;;;20.90;99.00;;;;;;4264608;27;20054;-76
2021/08/06 01:44:18;;;;;;;8.25;2.13;;;20.80;99.10;;;;;;4264402;27;20047;-74
2021/08/06 01:46:25;;;;;;;14.95;2.92;;;20.90;99.00;;;;;;4264559;27;20046;-74
2021/08/06 01:48:36;;;;;;;12.93;2.30;;;20.90;98.90;;;;;;4264153;27;20356;-74
2021/08/06 01:50:42;;;;;;;10.02;3.17;;;20.80;99.10;;;;;;4264453;27;20046;-74
2021/08/06 01:52:48;;;;;;;8.82;2.63;;;20.80;99.20;;;;;;4264107;27;20062;-74
2021/08/06 01:54:53;;;;;;;8.73;2.10;;;20.70;99.20;;;;;;4264448;27;20054;-75
2021/08/06 01:56:57;;;;;;;8.27;2.55;;;20.70;99.30;;;;;;4263903;27;20051;-74
2021/08/06 01:59:02;;;;;;;7.30;2.70;;;20.70;99.40;;;;;;4264272;27;20047;-74
2021/08/06 02:01:08;;;;;;;7.03;2.15;;;20.70;99.30;;;;;;4263966;27;20051;-73
2021/08/06 02:03:14;;;;;;;10.00;2.58;;;20.60;99.60;;;;;;4264249;27;20077;-74
2021/08/06 02:05:17;;;;;;;9.15;3.05;;;20.60;99.80;;;;;;4264131;27;20066;-73
2021/08/06 02:07:21;;;;;;;11.07;2.45;;;20.60;99.80;;;;;;4245627;27;20086;-73
2021/08/06 02:09:25;;;;;;;6.65;2.22;;;20.60;99.90;;;;;;4264028;27;20051;-74
2021/08/06 02:11:28;;;;;;;9.55;2.38;;;20.50;99.90;;;;;;4264514;27;20482;-73
2021/08/06 02:13:31;;;;;;;12.05;2.58;;;20.60;99.90;;;;;;4264547;27;20058;-73
2021/08/06 02:15:39;;;;;;;9.18;2.78;;;20.60;99.80;;;;;;4264656;27;20050;-75
2021/08/06 02:17:44;;;;;;;11.98;2.13;;;20.60;99.80;;;;;;4264239;27;20504;-73
2021/08/06 02:19:49;;;;;;;7.78;2.17;;;20.60;99.70;;;;;;4264497;27;20055;-73
2021/08/06 02:21:55;;;;;;;12.52;2.30;;;20.60;99.70;;;;;;4263777;27;20063;-73
2021/08/06 02:24:05;;;;;;;11.73;2.50;;;20.70;99.50;;;;;;4263938;27;20047;-73
2021/08/06 02:26:08;;;;;;;7.22;2.40;;;20.80;99.30;;;;;;4245318;27;20484;-73
2021/08/06 02:28:12;;;;;;;9.88;2.58;;;20.70;99.40;;;;;;4263524;27;20050;-74
2021/08/06 02:30:17;;;;;;;10.90;2.33;;;20.70;99.30;;;;;;4263596;27;20053;-73
2021/08/06 02:32:22;;;;;;;9.30;2.22;;;20.80;99.20;;;;;;4263448;27;20051;-74
2021/08/06 02:34:24;;;;;;;;;;;20.90;99.00;;;;;;4264446;27;20042;-73
2021/08/06 02:36:27;;;;;;;8.52;2.17;;;20.90;99.00;;;;;;4263650;27;19918;-72
2021/08/06 02:38:30;;;;;;;9.77;2.30;;;20.80;99.00;;;;;;4263347;27;20057;-73
2021/08/06 02:40:33;;;;;;;6.82;2.15;;;20.60;99.30;;;;;;4263343;27;20055;-73
2021/08/06 02:42:37;;;;;;;6.88;1.83;;;20.40;99.40;;;;;;4263442;27;20051;-73
2021/08/06 02:44:41;;;;;;;7.30;2.30;;;20.30;99.80;;;;;;4263444;27;20061;-73
2021/08/06 02:46:44;;;;;;;8.90;2.33;;;20.40;99.80;;;;;;4255817;27;20510;-73
2021/08/06 02:48:48;;;;;;;6.60;2.10;;;20.30;99.90;;;;;;4246238;27;20043;-73
2021/08/06 02:50:51;;;;;;;9.50;2.33;;;20.20;99.90;;;;;;4246410;27;20067;-73
2021/08/06 02:52:54;;;;;;;9.57;2.50;;;20.20;99.90;;;;;;4246005;27;20051;-74
2021/08/06 02:54:58;;;;;;;8.45;1.80;;;20.30;99.80;;;;;;4246274;27;20059;-74
2021/08/06 02:57:01;;;;;;;6.72;2.10;;;20.40;99.60;;;;;;4246105;27;20407;-73
2021/08/06 02:59:04;;;;;;;7.10;1.85;;;20.30;99.70;;;;;;4246026;27;20059;-74
2021/08/06 03:01:07;;;;;;;9.85;2.08;;;20.30;99.80;;;;;;4246182;27;20055;-73
2021/08/06 03:03:10;;;;;;;8.07;2.10;;;20.40;99.60;;;;;;4247458;27;20085;-73
2021/08/06 03:05:14;;;;;;;9.23;2.45;;;20.40;99.70;;;;;;4262893;27;20058;-75
2021/08/06 03:07:18;;;;;;;11.98;2.30;;;20.30;99.70;;;;;;4263113;27;20421;-73
2021/08/06 03:09:21;;;;;;;8.70;2.22;;;20.50;99.50;;;;;;4263081;27;20054;-73
2021/08/06 03:11:24;;;;;;;6.00;1.80;;;20.40;99.50;;;;;;4262969;27;20059;-72
2021/08/06 03:13:27;;;;;;;7.82;2.20;;;20.50;99.20;;;;;;4263010;27;20054;-74
2021/08/06 03:15:31;;;;;;;7.43;2.10;;;20.40;99.00;;;;;;4262974;27;20050;-73
2021/08/06 03:17:34;;;;;;;6.50;1.85;;;20.40;99.10;;;;;;4263065;27;20062;-73
2021/08/06 03:19:37;;;;;;;5.25;1.92;;;20.40;99.00;;;;;;4262906;27;20053;-74
2021/08/06 03:21:41;;;;;;;8.23;2.00;;;20.60;98.60;;;;;;4262944;27;20046;-73
2021/08/06 03:23:44;;;;;;;5.22;1.98;;;20.60;98.50;;;;;;4262917;27;20063;-73
2021/08/06 03:25:47;;;;;;;7.80;2.00;;;20.60;98.40;;;;;;4263357;27;20042;-73
2021/08/06 03:27:50;;;;;;;7.57;2.05;;;20.50;98.40;;;;;;4263433;27;20039;-74
2021/08/06 03:29:53;;;;;;;9.20;2.22;;;20.30;98.70;;;;;;4263232;27;20066;-74
2021/08/06 03:31:56;;;;;;;9.90;1.80;;;20.30;98.70;;;;;;4262730;27;20051;-76
2021/08/06 03:33:59;;;;;;;6.60;1.83;;;20.20;98.80;;;;;;4262741;27;20047;-74
2021/08/06 03:36:03;;;;;;;6.03;1.70;;;20.30;98.60;;;;;;4262736;27;20058;-73
2021/08/06 03:38:15;;;;;;;8.30;1.98;;;20.30;98.50;;;;;;4262758;27;20447;-73
2021/08/06 03:40:18;;;;;;;7.53;1.80;;;20.40;98.40;;;;;;4262844;27;20636;-73
2021/08/06 03:42:21;;;;;;;6.60;1.70;;;20.40;98.10;;;;;;4262752;27;20058;-73
2021/08/06 03:44:24;;;;;;;11.63;2.38;;;20.40;98.20;;;;;;4262641;27;20050;-73
2021/08/06 03:46:27;;;;;;;8.05;2.08;;;20.30;98.20;;;;;;4262545;27;20050;-73
2021/08/06 03:48:31;;;;;;;4.75;1.70;;;20.30;98.20;;;;;;4262554;27;20134;-77
2021/08/06 03:50:34;;;;;;;13.73;2.67;;;20.10;98.30;;;;;;4262633;27;20058;-73
2021/08/06 03:52:37;;;;;;;9.15;2.25;;;20.10;98.50;;;;;;4262888;27;20069;-73
2021/08/06 03:54:42;;;;;;;8.80;2.05;;;19.90;98.50;;;;;;4262509;27;20379;-73
2021/08/06 03:56:45;;;;;;;4.88;1.67;;;20.00;98.50;;;;;;4262516;27;20050;-73
2021/08/06 03:58:48;;;;;;;7.20;1.70;;;20.00;98.70;;;;;;4263750;27;20062;-73
2021/08/06 04:00:51;;;;;;;6.38;1.73;;;20.10;98.30;;;;;;4266045;27;20062;-73
2021/08/06 04:02:54;;;;;;;8.18;2.10;;;19.90;98.50;;;;;;4266081;27;20532;-73
2021/08/06 04:04:57;;;;;;;5.75;1.60;;;20.00;98.40;;;;;;4265812;27;20051;-73
2021/08/06 04:07:00;;;;;;;9.88;1.95;;;20.00;98.20;;;;;;4265746;27;20395;-73
2021/08/06 04:09:03;;;;;;;8.57;2.13;;;20.10;98.10;;;;;;4265747;27;20055;-75
2021/08/06 04:11:08;;;;;;;8.18;1.70;;;20.10;98.00;;;;;;4265996;27;20051;-73
2021/08/06 04:13:11;;;;;;;12.45;1.80;;;20.00;98.00;;;;;;4265916;27;20498;-73
2021/08/06 04:15:14;;;;;;;7.47;1.80;;;20.10;98.10;;;;;;4265291;27;20495;-73
2021/08/06 04:17:17;;;;;;;5.88;1.90;;;20.00;98.20;;;;;;4265746;27;20055;-73
2021/08/06 04:19:20;;;;;;;9.80;2.00;;;19.90;98.40;;;;;;4265446;27;20057;-73
2021/08/06 04:21:23;;;;;;;6.80;2.03;;;19.80;98.60;;;;;;4265780;27;20057;-73
2021/08/06 04:23:27;;;;;;;11.05;2.05;;;19.80;98.70;;;;;;4265494;27;20054;-72
2021/08/06 04:25:30;;;;;;;9.38;1.92;;;19.90;98.70;;;;;;4265510;27;20092;-73
2021/08/06 04:27:34;;;;;;;9.30;2.30;;;19.90;98.90;;;;;;4265483;27;20058;-73
2021/08/06 04:29:37;;;;;;;5.68;1.42;;;19.90;98.80;;;;;;4265603;27;20053;-73
2021/08/06 04:31:40;;;;;;;8.57;1.90;;;19.90;98.70;;;;;;4265411;27;20058;-73
2021/08/06 04:33:43;;;;;;;10.73;2.30;;;20.00;98.70;;;;;;4265252;27;20051;-75
2021/08/06 04:35:46;;;;;;;6.25;2.08;;;19.90;98.70;;;;;;4265503;27;20360;-73
2021/08/06 04:37:50;;;;;;;7.88;1.98;;;19.90;98.60;;;;;;4265481;27;20051;-76
2021/08/06 04:39:53;;;;;;;10.90;2.50;;;19.90;98.70;;;;;;4247361;27;20051;-75
2021/08/06 04:41:56;;;;;;;9.93;2.28;;;19.70;99.00;;;;;;4265178;27;20051;-75
2021/08/06 04:44:01;;;;;;;10.88;2.28;;;19.60;99.20;;;;;;4265488;27;20057;-73
2021/08/06 04:46:04;;;;;;;8.55;2.42;;;19.60;99.30;;;;;;4264020;27;20694;-73
2021/08/06 04:48:07;;;;;;;8.35;2.15;;;19.70;99.10;;;;;;4248541;27;20047;-73
2021/08/06 04:50:11;;;;;;;9.20;2.10;;;19.60;99.10;;;;;;4248333;27;20047;-73
2021/08/06 04:52:14;;;;;;;8.13;1.90;;;19.60;99.30;;;;;;4248109;27;20058;-73
2021/08/06 04:54:17;;;;;;;10.65;2.08;;;19.50;99.40;;;;;;4248053;27;20403;-76
2021/08/06 04:56:20;;;;;;;8.15;2.03;;;19.50;99.50;;;;;;4248163;27;20059;-75
2021/08/06 04:58:23;;;;;;;9.48;2.10;;;19.50;99.50;;;;;;4247835;27;20058;-76
2021/08/06 05:00:28;;;;;;;9.05;1.88;;;19.40;99.60;;;;;;4248014;27;20063;-75
2021/08/06 05:02:31;;;;;;;8.63;2.13;;;19.40;99.50;;;;;;4247984;27;20403;-75
2021/08/06 05:04:34;;;;;;;12.40;2.20;;;19.40;99.20;;;;;;4247943;27;20503;-75
2021/08/06 05:06:37;;;;;;;11.70;1.73;;;19.30;99.60;;;;;;4248433;27;20055;-76
2021/08/06 05:08:43;;;;;;;7.57;1.98;;;19.30;99.70;;;;;;4248112;27;20081;-76
2021/08/06 05:10:46;;;;;;;12.00;2.53;;;19.40;99.40;;;;;;4229429;28;20059;-75
2021/08/06 05:12:49;;;;;;;8.98;2.67;;;19.50;99.20;;;;;;4248234;27;20414;-74
2021/08/06 05:14:52;;;;;;;12.85;2.03;;;19.60;98.80;;;;;;4247784;27;20491;-75
2021/08/06 05:16:57;;;;;;;9.73;2.03;;;19.60;98.70;;;;;;4247979;27;20051;-73
2021/08/06 05:19:00;;;;;;;12.93;2.28;;;19.60;98.70;;;;;;4247995;27;20055;-73
2021/08/06 05:21:03;;;;;;;6.93;2.28;;;19.70;98.50;;;;;;4247554;27;20059;-75
2021/08/06 05:23:06;;;;;;;6.93;2.13;;;19.90;98.10;;;;;;4229363;28;20055;-75
2021/08/06 05:25:10;;;;;;;8.05;2.40;;;19.80;97.90;;;;;;4247516;27;20138;-75
2021/08/06 05:27:13;;;;;;;11.73;2.80;;;19.80;97.80;;;;;;4247516;27;20562;-76
2021/08/06 05:29:16;;;;;;;10.70;2.28;;;19.80;97.80;;;;;;4247382;27;20047;-72
2021/08/06 05:31:19;;;;;;;9.57;2.05;;;19.90;97.70;;;;;;4247394;27;20142;-73
2021/08/06 05:33:24;;;;;;;11.68;2.50;;;19.80;97.70;;;;;;4247295;27;20059;-75
2021/08/06 05:35:27;;;;;;;14.63;2.28;;;19.90;97.60;;;;;;4247466;27;20529;-76
2021/08/06 05:37:30;;;;;;;9.38;2.15;;;19.80;97.40;;;;;;4247066;27;20051;-75
2021/08/06 05:39:33;;;;;;;7.25;1.80;;;19.70;97.70;;;;;;4247286;27;20065;-75
2021/08/06 05:41:36;;;;;;;13.93;2.65;;;19.70;97.60;;;;;;4247306;27;20073;-76
2021/08/06 05:43:39;;;;;;;10.85;2.35;;;19.70;97.60;;;;;;4247487;27;20436;-73
2021/08/06 05:45:43;;;;;;;8.73;2.05;;;19.90;97.40;;;;;;4247444;27;20377;-75
2021/08/06 05:47:48;;;;;;;10.67;2.27;;;19.90;97.20;;;;;;4247079;27;20047;-76
2021/08/06 05:49:53;;;;;;;7.28;1.85;;;20.00;97.20;;;;;;4247201;27;20056;-75
2021/08/06 05:51:56;;;;;;;5.68;1.70;;;20.00;97.10;;;;;;4228770;27;20056;-72
2021/08/06 05:54:01;;;;;;;8.23;2.25;;;20.00;97.00;;;;;;4247124;27;20398;-76
2021/08/06 05:56:04;;;;;;;7.95;2.70;;;20.00;96.90;;;;;;4247370;27;20070;-75
2021/08/06 05:58:07;;;;;;;11.90;2.78;;;20.20;96.70;;;;;;4247133;27;20051;-75
2021/08/06 06:00:12;;;;;;;16.33;2.42;;;20.20;96.60;;;;;;4247052;27;20519;-75
2021/08/06 06:02:15;;;;;;;6.35;1.95;;;20.20;96.50;;;;;;4247314;27;20055;-75
2021/08/06 06:04:18;;;;;;;9.50;2.28;;;20.20;96.40;;;;;;4257855;27;20054;-75
2021/08/06 06:06:23;;;;;;;10.30;2.00;;;20.10;96.70;;;;;;4263870;27;20616;-75
2021/08/06 06:08:28;;;;;;;10.27;1.75;;;20.00;96.80;;;;;;4264231;27;20051;-75
2021/08/06 06:10:32;;;;;;;7.45;2.25;;;19.90;96.90;;;;;;4264112;27;20057;-75
2021/08/06 06:12:34;;;;;;;7.55;2.20;;;19.90;97.20;;;;;;4245655;27;20061;-73
2021/08/06 06:14:37;;;;;;;8.40;2.40;;;19.90;97.10;;;;;;4263745;27;20073;-73
2021/08/06 06:16:41;;;;;;;13.35;2.15;;;20.00;97.10;;;;;;4264062;27;20502;-74
2021/08/06 06:18:44;;;;;;;9.07;2.30;;;20.00;97.10;;;;;;4263756;27;20562;-73
2021/08/06 06:20:47;;;;;;;9.45;2.00;;;20.00;97.30;;;;;;4263838;27;20069;-73
2021/08/06 06:22:52;;;;;;;13.25;2.33;;;20.00;97.20;;;;;;4262584;27;20053;-73
2021/08/06 06:24:55;;;;;;;10.98;2.08;;;20.10;97.40;;;;;;4264052;27;20504;-73
2021/08/06 06:26:58;;;;;;;11.38;1.95;;;20.20;97.30;;;;;;4263833;27;20050;-75
2021/08/06 06:29:01;;;;;;;13.38;2.35;;;20.20;97.30;;;;;;4263404;27;20050;-73
2021/08/06 06:31:04;;;;;;;11.05;2.50;;;20.30;97.30;;;;;;4263841;27;20051;-75
2021/08/06 06:33:08;;;;;;;12.25;2.10;;;20.20;97.50;;;;;;4263655;27;20051;-75
2021/08/06 06:35:11;;;;;;;13.35;2.17;;;20.20;97.40;;;;;;4263672;27;20055;-75
2021/08/06 06:37:14;;;;;;;10.88;2.20;;;20.30;97.20;;;;;;4263321;27;20119;-75
2021/08/06 06:39:19;;;;;;;11.90;2.10;;;20.20;97.40;;;;;;4245113;27;20066;-74
2021/08/06 06:41:22;;;;;;;;;;;20.20;97.40;;;;;;4264050;27;20066;-75
2021/08/06 06:43:25;;;;;;;10.23;2.45;;;20.10;97.60;;;;;;4263625;27;20017;-75
2021/08/06 06:45:31;;;;;;;6.40;1.63;;;20.00;97.70;;;;;;4263722;27;20473;-75
2021/08/06 06:47:38;;;;;;;9.23;2.05;;;20.00;97.90;;;;;;4263420;27;20498;-73
2021/08/06 06:49:41;;;;;;;9.27;2.00;;;20.10;97.70;;;;;;4263690;27;20057;-74
2021/08/06 06:51:44;;;;;;;10.73;2.22;;;20.20;97.40;;;;;;4263543;27;20054;-74
2021/08/06 06:53:47;;;;;;;12.38;1.90;;;20.40;97.40;;;;;;4263222;27;20050;-74
2021/08/06 06:55:52;;;;;;;12.57;2.53;;;20.40;97.00;;;;;;4263367;27;20050;-73
2021/08/06 06:57:56;;;;;;;13.32;2.30;;;20.10;97.40;;;;;;4263072;27;20053;-74
2021/08/06 06:59:59;;;;;;;21.48;2.75;;;20.10;97.70;;;;;;4263412;27;20414;-74
2021/08/06 07:02:03;;;;;;;12.20;1.92;;;20.30;97.50;;;;;;4262961;27;20061;-73
2021/08/06 07:04:06;;;;;;;9.98;2.45;;;20.10;97.50;;;;;;4263066;27;20059;-73
2021/08/06 07:06:09;;;;;;;8.48;1.90;;;20.00;97.90;;;;;;4262884;27;20411;-73
2021/08/06 07:08:11;;;;;;;13.95;2.10;;;20.00;98.00;;;;;;4263144;27;20061;-74
2021/08/06 07:10:16;;;;;;;;;;;19.80;98.10;;;;;;4263862;27;20663;-74
2021/08/06 07:12:21;;;;;;;10.18;2.00;;;20.00;98.10;;;;;;4263586;27;19919;-73
2021/08/06 07:14:23;;;;;;;14.38;2.20;;;19.90;98.10;;;;;;4262679;27;20057;-73
2021/08/06 07:16:26;;;;;;;14.13;2.47;;;20.00;98.00;;;;;;4262936;27;20058;-74
2021/08/06 07:18:31;;;;;;;12.48;2.35;;;20.00;98.00;;;;;;4263245;27;20520;-74
2021/08/06 07:20:34;;;;;;;11.43;2.65;;;20.10;98.00;;;;;;4263005;27;20066;-73
2021/08/06 07:22:38;;;;;;;15.63;2.30;;;20.10;97.90;;;;;;4262809;27;20053;-73
2021/08/06 07:24:41;;;;;;;10.98;2.20;;;20.00;98.00;;;;;;4263045;27;20208;-74
2021/08/06 07:26:43;;;;;;;10.10;1.95;;;19.90;98.20;;;;;;4263020;27;20055;-73
2021/08/06 07:28:48;;;;;;;12.02;2.00;;;19.90;98.30;;;;;;4262883;27;20054;-74
2021/08/06 07:30:51;;;;;;;9.75;1.80;;;20.00;98.10;;;;;;4262898;27;20053;-73
2021/08/06 07:32:54;;;;;;;10.35;1.95;;;20.10;97.90;;;;;;4262657;27;20046;-73
2021/08/06 07:34:57;;;;;;;9.38;1.70;;;20.10;98.00;;;;;;4262569;27;20051;-74
2021/08/06 07:37:00;;;;;;;12.68;2.17;;;20.20;97.80;;;;;;4263126;27;20418;-73
2021/08/06 07:39:03;;;;;;;10.48;1.75;;;20.00;98.10;;;;;;4262951;27;20081;-74
2021/08/06 07:41:06;;;;;;;6.60;2.00;;;20.00;98.00;;;;;;4263030;27;20049;-73
2021/08/06 07:43:09;;;;;;;11.02;1.85;;;20.10;98.20;;;;;;4262680;27;20084;-74
2021/08/06 07:45:13;;;;;;;8.98;1.90;;;20.10;98.20;;;;;;4262710;27;20885;-74
2021/08/06 07:47:17;;;;;;;11.48;2.03;;;19.90;98.30;;;;;;4250773;27;20078;-73
2021/08/06 07:49:20;;;;;;;10.10;2.03;;;20.00;98.50;;;;;;4245730;28;20057;-73
2021/08/06 07:51:23;;;;;;;10.88;1.58;;;20.00;98.60;;;;;;4245962;28;20043;-73
2021/08/06 07:53:26;;;;;;;8.95;1.83;;;20.20;98.50;;;;;;4245910;28;20062;-74
2021/08/06 07:55:29;;;;;;;9.48;1.85;;;20.10;98.60;;;;;;4245573;28;20058;-74
2021/08/06 07:57:32;;;;;;;7.53;1.70;;;20.00;98.80;;;;;;4245898;28;20051;-73
2021/08/06 07:59:37;;;;;;;10.90;1.98;;;20.10;99.40;;;;;;4245979;28;20111;-73
2021/08/06 08:01:41;;;;;;;8.77;1.60;;;20.20;99.00;;;;;;4245626;28;20058;-73
2021/08/06 08:03:44;;;;;;;6.53;1.38;;;20.40;98.50;;;;;;4245851;28;20056;-74
2021/08/06 08:05:47;;;;;;;8.93;1.88;;;20.20;98.50;;;;;;4245676;28;20059;-74
2021/08/06 08:07:50;;;;;;;8.15;1.65;;;20.20;98.40;;;;;;4245867;28;20520;-73
2021/08/06 08:09:58;;;;;;;9.70;1.75;;;20.20;98.30;;;;;;4245534;28;20059;-73
2021/08/06 08:12:01;;;;;;;10.50;1.92;;;20.10;98.40;;;;;;4245475;28;20084;-73
2021/08/06 08:14:04;;;;;;;13.90;1.88;;;20.10;98.40;;;;;;4245169;27;20066;-74
2021/08/06 08:16:07;;;;;;;17.08;1.80;;;20.20;98.30;;;;;;4245497;28;20061;-74
2021/08/06 08:18:12;;;;;;;8.43;1.98;;;20.40;98.10;;;;;;4245623;28;20068;-73
2021/08/06 08:20:15;;;;;;;9.52;2.22;;;20.30;98.10;;;;;;4245340;28;20059;-74
2021/08/06 08:22:18;;;;;;;10.85;2.05;;;20.50;98.10;;;;;;4245545;28;20059;-73
2021/08/06 08:24:21;;;;;;;13.63;2.28;;;20.60;97.80;;;;;;4245330;28;20047;-73
2021/08/06 08:26:24;;;;;;;5.97;1.73;;;20.60;97.90;;;;;;4245721;28;20057;-73
2021/08/06 08:28:27;;;;;;;7.32;1.80;;;20.40;98.00;;;;;;4245655;28;20108;-73
2021/08/06 08:30:30;;;;;;;9.15;2.22;;;20.50;97.90;;;;;;4245317;28;20078;-73
2021/08/06 08:32:38;;;;;;;12.95;2.20;;;20.60;98.00;;;;;;4245295;28;20051;-74
2021/08/06 08:34:42;;;;;;;16.05;1.90;;;20.80;97.70;;;;;;4245445;28;20056;-73
2021/08/06 08:36:45;;;;;;;12.13;2.03;;;20.80;97.60;;;;;;4245250;28;20061;-72
2021/08/06 08:38:49;;;;;;;8.63;1.60;;;20.70;97.50;;;;;;4245148;28;20058;-73
2021/08/06 08:40:54;;;;;;;8.02;1.75;;;20.80;97.50;;;;;;4245473;28;20055;-73
2021/08/06 08:42:58;;;;;;;15.43;2.03;;;20.80;97.30;;;;;;4245429;28;20061;-73
2021/08/06 08:45:02;;;;;;;9.50;1.80;;;20.90;97.40;;;;;;4245186;27;20051;-74
2021/08/06 08:47:06;;;;;;;6.45;1.63;;;21.00;97.20;;;;;;4248049;27;20043;-74
2021/08/06 08:49:10;;;;;;;10.63;2.35;;;21.00;96.80;;;;;;4248179;27;20514;-73
2021/08/06 08:51:14;;;;;;;11.85;1.77;;;21.00;96.80;;;;;;4248231;27;20090;-73
2021/08/06 08:53:18;;;;;;;6.60;1.52;;;20.90;96.90;;;;;;4248180;27;20055;-73
2021/08/06 08:55:21;;;;;;;8.25;1.73;;;21.00;96.80;;;;;;4247840;27;20134;-73
2021/08/06 08:57:24;;;;;;;7.13;1.80;;;20.70;96.80;;;;;;4248466;27;20601;-75
2021/08/06 08:59:29;;;;;;;9.88;2.08;;;20.60;97.10;;;;;;4248097;27;20482;-75
2021/08/06 09:01:32;;;;;;;6.22;1.80;;;20.60;97.10;;;;;;4248025;27;20051;-75
2021/08/06 09:03:40;;;;;;;6.95;1.52;;;20.70;97.00;;;;;;4252792;27;20051;-75
2021/08/06 09:05:50;;;;;;;11.20;1.75;;;20.70;96.80;;;;;;4264963;27;20069;-75
2021/08/06 09:07:55;;;;;;;11.20;1.80;;;20.60;96.90;;;;;;4265283;27;20055;-75
2021/08/06 09:10:07;;;;;;;11.25;1.88;;;20.60;96.90;;;;;;4265081;27;20053;-73
2021/08/06 09:12:12;;;;;;;9.77;1.70;;;20.60;97.20;;;;;;4265041;27;20057;-73
2021/08/06 09:14:21;;;;;;;8.63;1.83;;;20.50;97.00;;;;;;4264958;27;20061;-75
2021/08/06 09:16:24;;;;;;;12.25;1.90;;;20.60;97.20;;;;;;4264852;27;20061;-75
2021/08/06 09:18:30;;;;;;;7.78;1.65;;;20.50;97.20;;;;;;4265029;27;20058;-75
2021/08/06 09:20:39;;;;;;;11.27;1.75;;;20.40;97.30;;;;;;4264764;27;20051;-75
2021/08/06 09:22:42;;;;;;;11.65;1.90;;;20.60;97.40;;;;;;4264794;27;20059;-75
2021/08/06 09:25:10;;;;;;;14.00;2.00;;;20.70;97.00;;;;;;4264724;27;20434;-75
2021/08/06 09:27:17;;;;;;;7.32;1.33;;;20.70;97.10;;;;;;4264881;27;20054;-75
2021/08/06 09:29:22;;;;;;;8.93;1.77;;;21.00;96.80;;;;;;4264672;27;20054;-73
2021/08/06 09:31:25;;;;;;;6.32;1.65;;;21.10;96.40;;;;;;4264654;27;20047;-73
2021/08/06 09:33:32;;;;;;;6.68;1.40;;;21.20;96.50;;;;;;4264778;27;20057;-73
2021/08/06 09:35:36;;;;;;;5.63;1.70;;;21.20;96.20;;;;;;4264979;27;20085;-73
2021/08/06 09:37:39;;;;;;;12.38;1.70;;;21.10;96.30;;;;;;4264995;27;20055;-73
2021/08/06 09:39:45;;;;;;;8.35;1.83;;;21.30;96.30;;;;;;4264802;27;20616;-73
2021/08/06 09:41:50;;;;;;;15.25;1.75;;;21.50;95.70;;;;;;4264624;27;20571;-73
2021/08/06 09:44:15;;;;;;;9.98;1.65;;;21.50;95.60;;;;;;4264787;27;20051;-73
2021/08/06 09:46:27;;;;;;;11.27;1.60;;;21.60;95.20;;;;;;4264132;27;20389;-72
2021/08/06 09:48:30;;;;;;;5.65;1.30;;;21.40;95.70;;;;;;4264529;27;20055;-73
2021/08/06 09:50:35;;;;;;;3.92;1.38;;;21.50;95.70;;;;;;4246271;27;20055;-74
2021/08/06 09:52:39;;;;;;;;;;;21.50;95.80;;;;;;4265345;27;20043;-73
2021/08/06 09:54:57;;;;;;;10.25;1.52;;;21.80;95.70;;;;;;4264468;27;19934;-73
2021/08/06 09:57:05;;;;;;;12.25;1.50;;;21.60;95.40;;;;;;4263739;27;20054;-73
2021/08/06 09:59:08;;;;;;;7.43;1.45;;;21.70;95.80;;;;;;4262855;27;20054;-73
2021/08/06 10:01:20;;;;;;;10.95;1.77;;;22.00;95.50;;;;;;4258033;27;20043;-74
2021/08/06 10:03:28;;;;;;;;;;;22.00;95.00;;;;;;4246618;27;20455;-79
2021/08/06 10:05:32;;;;;;;9.93;1.65;;;21.80;95.30;;;;;;4262090;27;19919;-74
2021/08/06 10:07:37;;;;;;;5.95;1.58;;;21.90;95.20;;;;;;4264133;27;20518;-75
2021/08/06 10:09:40;;;;;;;5.45;2.35;;;22.00;94.80;;;;;;4260545;27;20047;-76
2021/08/06 10:11:50;;;;;;;9.00;1.48;;;22.10;94.80;;;;;;4258518;27;20054;-75
2021/08/06 10:13:57;;;;;;;9.73;2.10;;;22.10;94.70;;;;;;4259801;27;20054;-76
2021/08/06 10:16:03;;;;;;;6.93;2.08;;;22.10;94.70;;;;;;4260259;27;20171;-76
2021/08/06 10:18:12;;;;;;;9.77;1.50;;;22.00;94.30;;;;;;4260788;27;20068;-75
2021/08/06 10:20:22;;;;;;;8.93;1.80;;;22.10;94.70;;;;;;4241880;27;20148;-76
2021/08/06 10:22:29;;;;;;;8.20;2.08;;;22.20;94.40;;;;;;4259606;27;20107;-77
2021/08/06 10:24:38;;;;;;;4.78;1.20;;;22.30;94.30;;;;;;4260077;27;20110;-75
2021/08/06 10:26:51;;;;;;;3.88;1.40;;;22.30;94.10;;;;;;4261403;27;20585;-75
2021/08/06 10:28:58;;;;;;;6.10;1.20;;;22.20;94.10;;;;;;4260207;27;20137;-79
2021/08/06 10:31:17;;;;;;;8.88;2.53;;;22.30;94.30;;;;;;4257233;27;20059;-76
2021/08/06 10:33:28;;;;;;;4.45;1.85;;;22.50;94.20;;;;;;4259983;27;20050;-78
2021/08/06 10:35:44;;;;;;;5.60;1.38;;;22.50;94.00;;;;;;4260136;27;20463;-75
2021/08/06 10:37:54;;;;;;;6.68;1.35;;;22.40;93.80;;;;;;4241543;27;20183;-75
2021/08/06 10:40:02;;;;;;;6.18;1.45;;;22.50;93.70;;;;;;4241183;27;20118;-75
2021/08/06 10:42:08;;;;;;;4.95;1.27;;;22.50;93.30;;;;;;4241152;27;20063;-78
2021/08/06 10:44:19;;;;;;;4.93;1.33;;;22.30;93.30;;;;;;4260217;27;20121;-78